This is the latest recevied weather packets stored in our database for station/object OE-11061. If no packets are shown the sender has not sent any weather packets the latest 10 day(s).
| Time | Temp. | Humidity | Pressure | Rain* | Wind** | Luminosity | Snow |
|---|---|---|---|---|---|---|---|
| 1788014495 | 23.89° C | 44% | 1014.9 hPa | 0 mm | - | 336 W/m² | - |
| 1788014121 | 24.44° C | 47% | 1014.9 hPa | 0 mm | - | 590 W/m² | - |
| 1788013521 | 24.44° C | 47% | 1014.8 hPa | 0 mm | - | 612 W/m² | - |
| 1788012321 | 24.44° C | 48% | 1015.1 hPa | 0 mm | - | 508 W/m² | - |
| 1788010521 | 24.44° C | 48% | 1015.4 hPa | 0 mm | - | 620 W/m² | - |
| 1788009094 | 23.89° C | 50% | 1015.6 hPa | 0 mm | - | 448 W/m² | - |
| 1788008721 | 23.89° C | 53% | 1015.7 hPa | 0 mm | - | 530 W/m² | - |
| 1788007294 | 24.44° C | 52% | 1015.7 hPa | 0 mm | - | 784 W/m² | - |
| 1788006922 | 23.89° C | 51% | 1015.9 hPa | 0 mm | - | 777 W/m² | - |
| 1788006321 | 24.44° C | 52% | 1016 hPa | 0 mm | - | 784 W/m² | - |
| 1788005494 | 23.89° C | 54% | 1016.2 hPa | 0 mm | - | 792 W/m² | - |
| 1788005121 | 23.33° C | 55% | 1016.2 hPa | 0 mm | - | 627 W/m² | - |
| 1788004521 | 23.33° C | 54% | 1016.3 hPa | 0 mm | - | 747 W/m² | - |
| 1788003321 | 22.78° C | 53% | 1016.6 hPa | 0 mm | - | 485 W/m² | - |
| 1788002721 | 23.33° C | 55% | 1016.7 hPa | 0 mm | - | 732 W/m² | - |
| 1788001894 | 23.33° C | 55% | 1016.6 hPa | 0 mm | - | 896 W/m² | - |
| 1788001521 | 23.33° C | 57% | 1016.8 hPa | 0 mm | - | 836 W/m² | - |
| 1788000921 | 22.22° C | 59% | 1017.1 hPa | 0 mm | - | 314 W/m² | - |
| 1788000094 | 23.33° C | 55% | 1016.8 hPa | 0 mm | - | 814 W/m² | - |
| 1787999721 | 23.89° C | 56% | 1016.9 hPa | 0 mm | - | 784 W/m² | - |
| 1787999121 | 23.33° C | 56% | 1016.9 hPa | 0 mm | - | 762 W/m² | - |
| 1787998294 | 22.78° C | 56% | 1017 hPa | 0 mm | - | 747 W/m² | - |
| 1787997921 | 23.33° C | 56% | 1017 hPa | 0 mm | - | 739 W/m² | - |
| 1787997321 | 22.78° C | 55% | 1017.2 hPa | 0 mm | - | 732 W/m² | - |
| 1787996494 | 22.78° C | 57% | 1017.2 hPa | 0 mm | - | 724 W/m² | - |
* Rain latest hour (hover to see other rain measurements)
** Current wind speed in m/s (hover to see current wind gust speed)